Kezdőlap
METAR-TAF:

METAR-TAF

Repülőterek :

légibázis

Tulln an der Donau, Ausztria

földrajzi szélesség: 48-19N, földrajzi hosszúság: 016-07E, magasság: 175 m

METAR: hiányzik

Idő: 15:52 (13:52 UTC)

Előrejelzés

A jelentés 2 órával és 37 perccel ezelõtt készült, 11:15 UTC
Az előrejelzés 14-én 12 óra UTC és 14-én 21 óra UTC között érvényes
Nyugat-délnyugati szél 12 kt
Látótávolság 10 km, vagy több
Kevés felhő 4000 lábon
Szórványos felhőzet 10000 lábon
Szakadozott felhőzet 27000 lábon
14-én 12 óra UTC és 14-én 16 óra UTC között ideiglenes
Kevés felhő 3500 lábon, Tornyos gomolyfelhő.
Szakadozott felhőzet 4000 lábon
záporok

TAF: LOXT 141115Z 1412/1421 24012KT 9999 FEW040 SCT100 BKN270 TEMPO 1412/1416 SHRA FEW035TCU BKN040

Meteorológiai megfigyelések és előrejelzések több, mint 4000 repülőtéren (METAR és TAF jelentéseket).

A térképen piros és sárga pontok jelzik az elérhető meteorológiai állomásokat.

Mozgassa az egeret a pont fölött, hogy megjelenjen az állomás neve.

Azután kattintson az időjárási megfigyelések és előrejelzések megtekintéséhez.

A térkép megváltoztatása: kattintson a fekete keresztel jelölt zöld gombra ráközelítéshez, a vonallal jelölt zöld gombra távolításhoz, vagy a zöld nyilakra a szomszédos térképek eléréséhez.


METAR-TAF: